sensor_id;sensor_type;location;lat;lon;timestamp;pressure;altitude;pressure_sealevel;temperature;humidity
42001;BME280;27689;48.390;10.856;2022-09-29T00:01:39;94731.81;;;7.13;100.00
42001;BME280;27689;48.390;10.856;2022-09-29T00:04:23;94722.56;;;7.11;100.00
42001;BME280;27689;48.390;10.856;2022-09-29T00:07:07;94726.94;;;7.10;100.00
42001;BME280;27689;48.390;10.856;2022-09-29T00:09:51;94720.09;;;7.09;100.00
42001;BME280;27689;48.390;10.856;2022-09-29T00:12:35;94725.63;;;7.06;100.00
42001;BME280;27689;48.390;10.856;2022-09-29T00:15:19;94722.88;;;7.07;100.00
42001;BME280;27689;48.390;10.856;2022-09-29T00:18:03;94717.34;;;7.11;100.00
42001;BME280;27689;48.390;10.856;2022-09-29T00:20:56;94713.94;;;7.18;100.00
42001;BME280;27689;48.390;10.856;2022-09-29T00:23:40;94710.66;;;7.16;100.00
42001;BME280;27689;48.390;10.856;2022-09-29T00:26:24;94716.53;;;7.10;100.00
42001;BME280;27689;48.390;10.856;2022-09-29T00:29:09;94715.06;;;7.16;100.00
42001;BME280;27689;48.390;10.856;2022-09-29T00:31:53;94703.81;;;7.15;100.00
42001;BME280;27689;48.390;10.856;2022-09-29T00:34:37;94719.78;;;7.20;100.00
42001;BME280;27689;48.390;10.856;2022-09-29T00:37:21;94721.75;;;7.26;100.00
42001;BME280;27689;48.390;10.856;2022-09-29T00:40:05;94724.19;;;7.28;100.00
42001;BME280;27689;48.390;10.856;2022-09-29T00:42:49;94722.41;;;7.36;100.00
42001;BME280;27689;48.390;10.856;2022-09-29T00:45:33;94720.63;;;7.37;100.00
42001;BME280;27689;48.390;10.856;2022-09-29T00:48:24;94730.25;;;7.36;100.00
42001;BME280;27689;48.390;10.856;2022-09-29T00:51:12;94725.66;;;7.30;100.00
42001;BME280;27689;48.390;10.856;2022-09-29T00:53:57;94728.25;;;7.30;100.00
42001;BME280;27689;48.390;10.856;2022-09-29T00:56:41;94720.44;;;7.30;100.00
42001;BME280;27689;48.390;10.856;2022-09-29T00:59:32;94721.91;;;7.33;100.00
42001;BME280;27689;48.390;10.856;2022-09-29T01:02:19;94725.34;;;7.33;100.00
42001;BME280;27689;48.390;10.856;2022-09-29T01:05:07;94718.19;;;7.35;100.00
42001;BME280;27689;48.390;10.856;2022-09-29T01:07:52;94714.94;;;7.41;100.00
42001;BME280;27689;48.390;10.856;2022-09-29T01:10:38;94709.38;;;7.44;100.00
42001;BME280;27689;48.390;10.856;2022-09-29T01:13:22;94695.88;;;7.49;100.00
42001;BME280;27689;48.390;10.856;2022-09-29T01:16:07;94694.75;;;7.52;100.00
42001;BME280;27689;48.390;10.856;2022-09-29T01:18:51;94690.19;;;7.54;100.00
42001;BME280;27689;48.390;10.856;2022-09-29T01:31:22;94686.59;;;7.63;100.00
42001;BME280;27689;48.390;10.856;2022-09-29T01:34:46;94681.53;;;7.61;100.00
42001;BME280;27689;48.390;10.856;2022-09-29T01:40:44;94687.56;;;7.62;100.00
42001;BME280;27689;48.390;10.856;2022-09-29T01:43:33;94686.09;;;7.59;100.00
42001;BME280;27689;48.390;10.856;2022-09-29T01:46:29;94689.19;;;7.63;100.00
42001;BME280;27689;48.390;10.856;2022-09-29T01:49:16;94689.84;;;7.65;100.00
42001;BME280;27689;48.390;10.856;2022-09-29T01:52:10;94690.66;;;7.65;100.00
42001;BME280;27689;48.390;10.856;2022-09-29T01:54:59;94693.78;;;7.69;100.00
42001;BME280;27689;48.390;10.856;2022-09-29T01:57:54;94692.78;;;7.70;100.00
42001;BME280;27689;48.390;10.856;2022-09-29T02:00:46;94689.84;;;7.65;100.00
42001;BME280;27689;48.390;10.856;2022-09-29T02:03:40;94689.84;;;7.65;100.00
42001;BME280;27689;48.390;10.856;2022-09-29T02:06:36;94679.44;;;7.65;100.00
42001;BME280;27689;48.390;10.856;2022-09-29T02:09:26;94690.50;;;7.67;100.00
42001;BME280;27689;48.390;10.856;2022-09-29T02:12:15;94685.63;;;7.64;100.00
42001;BME280;27689;48.390;10.856;2022-09-29T02:15:05;94677.31;;;7.60;100.00
42001;BME280;27689;48.390;10.856;2022-09-29T02:17:53;94677.63;;;7.65;100.00
42001;BME280;27689;48.390;10.856;2022-09-29T02:20:38;94674.22;;;7.65;100.00
42001;BME280;27689;48.390;10.856;2022-09-29T02:23:22;94683.00;;;7.64;100.00
42001;BME280;27689;48.390;10.856;2022-09-29T02:26:06;94678.78;;;7.63;100.00
42001;BME280;27689;48.390;10.856;2022-09-29T02:28:50;94672.09;;;7.60;100.00
42001;BME280;27689;48.390;10.856;2022-09-29T02:31:36;94681.38;;;7.63;100.00
42001;BME280;27689;48.390;10.856;2022-09-29T02:34:20;94679.09;;;7.60;100.00
42001;BME280;27689;48.390;10.856;2022-09-29T02:52:35;94680.72;;;7.61;100.00
42001;BME280;27689;48.390;10.856;2022-09-29T02:55:37;94676.16;;;7.63;100.00
42001;BME280;27689;48.390;10.856;2022-09-29T02:58:29;94669.81;;;7.65;100.00
42001;BME280;27689;48.390;10.856;2022-09-29T03:01:15;94665.25;;;7.59;100.00
42001;BME280;27689;48.390;10.856;2022-09-29T03:03:59;94666.59;;;7.55;100.00
42001;BME280;27689;48.390;10.856;2022-09-29T03:06:44;94665.25;;;7.59;100.00
42001;BME280;27689;48.390;10.856;2022-09-29T03:09:27;94664.28;;;7.60;100.00
42001;BME280;27689;48.390;10.856;2022-09-29T03:12:12;94666.88;;;7.60;100.00
42001;BME280;27689;48.390;10.856;2022-09-29T03:14:56;94661.50;;;7.62;100.00
42001;BME280;27689;48.390;10.856;2022-09-29T03:17:40;94659.56;;;7.56;100.00
42001;BME280;27689;48.390;10.856;2022-09-29T03:20:23;94658.94;;;7.54;100.00
42001;BME280;27689;48.390;10.856;2022-09-29T03:23:09;94657.63;;;7.50;100.00
42001;BME280;27689;48.390;10.856;2022-09-29T03:25:53;94654.53;;;7.46;100.00
42001;BME280;27689;48.390;10.856;2022-09-29T03:28:37;94662.50;;;7.44;100.00
42001;BME280;27689;48.390;10.856;2022-09-29T03:31:21;94661.53;;;7.37;100.00
42001;BME280;27689;48.390;10.856;2022-09-29T03:34:06;94655.81;;;7.34;100.00
42001;BME280;27689;48.390;10.856;2022-09-29T03:36:50;94657.28;;;7.28;100.00
42001;BME280;27689;48.390;10.856;2022-09-29T03:39:34;94656.31;;;7.29;100.00
42001;BME280;27689;48.390;10.856;2022-09-29T03:42:18;94662.84;;;7.25;100.00
42001;BME280;27689;48.390;10.856;2022-09-29T03:45:06;94665.91;;;7.21;100.00
42001;BME280;27689;48.390;10.856;2022-09-29T03:47:50;94651.91;;;7.22;100.00
42001;BME280;27689;48.390;10.856;2022-09-29T03:50:34;94657.94;;;7.14;100.00
42001;BME280;27689;48.390;10.856;2022-09-29T03:53:18;94663.63;;;7.10;100.00
42001;BME280;27689;48.390;10.856;2022-09-29T03:56:02;94659.25;;;7.10;100.00
42001;BME280;27689;48.390;10.856;2022-09-29T03:58:47;94652.41;;;7.09;100.00
42001;BME280;27689;48.390;10.856;2022-09-29T04:01:31;94645.41;;;7.10;100.00
42001;BME280;27689;48.390;10.856;2022-09-29T04:04:15;94644.25;;;7.04;100.00
42001;BME280;27689;48.390;10.856;2022-09-29T04:06:59;94647.50;;;7.06;100.00
42001;BME280;27689;48.390;10.856;2022-09-29T04:09:43;94652.72;;;7.06;100.00
42001;BME280;27689;48.390;10.856;2022-09-29T04:12:27;94666.38;;;7.00;100.00
42001;BME280;27689;48.390;10.856;2022-09-29T04:15:11;94672.38;;;7.00;100.00
42001;BME280;27689;48.390;10.856;2022-09-29T04:17:56;94666.88;;;7.03;100.00
42001;BME280;27689;48.390;10.856;2022-09-29T04:20:39;94663.94;;;7.06;100.00
42001;BME280;27689;48.390;10.856;2022-09-29T04:23:23;94658.44;;;7.10;100.00
42001;BME280;27689;48.390;10.856;2022-09-29T04:26:08;94661.34;;;7.15;100.00
42001;BME280;27689;48.390;10.856;2022-09-29T04:28:52;94658.75;;;7.15;100.00
42001;BME280;27689;48.390;10.856;2022-09-29T04:31:36;94660.38;;;7.16;100.00
42001;BME280;27689;48.390;10.856;2022-09-29T04:34:20;94663.13;;;7.14;100.00
42001;BME280;27689;48.390;10.856;2022-09-29T04:37:07;94678.13;;;7.12;100.00
42001;BME280;27689;48.390;10.856;2022-09-29T04:39:54;94686.56;;;7.14;100.00
42001;BME280;27689;48.390;10.856;2022-09-29T04:42:38;94689.50;;;7.19;100.00
42001;BME280;27689;48.390;10.856;2022-09-29T04:45:22;94682.34;;;7.21;100.00
42001;BME280;27689;48.390;10.856;2022-09-29T04:48:06;94689.50;;;7.19;100.00
42001;BME280;27689;48.390;10.856;2022-09-29T04:50:50;94674.53;;;7.21;100.00
42001;BME280;27689;48.390;10.856;2022-09-29T04:56:31;94671.94;;;7.29;100.00
42001;BME280;27689;48.390;10.856;2022-09-29T04:59:17;94662.97;;;7.32;100.00
42001;BME280;27689;48.390;10.856;2022-09-29T05:02:02;94666.25;;;7.34;100.00
42001;BME280;27689;48.390;10.856;2022-09-29T05:04:46;94662.50;;;7.36;100.00
42001;BME280;27689;48.390;10.856;2022-09-29T05:07:33;94654.22;;;7.41;100.00
42001;BME280;27689;48.390;10.856;2022-09-29T05:10:17;94658.09;;;7.45;100.00
42001;BME280;27689;48.390;10.856;2022-09-29T05:13:01;94656.31;;;7.46;100.00
42001;BME280;27689;48.390;10.856;2022-09-29T05:15:45;94662.16;;;7.48;100.00
42001;BME280;27689;48.390;10.856;2022-09-29T05:18:30;94673.56;;;7.47;100.00
42001;BME280;27689;48.390;10.856;2022-09-29T05:21:15;94673.25;;;7.41;100.00
42001;BME280;27689;48.390;10.856;2022-09-29T05:23:59;94678.78;;;7.38;100.00
42001;BME280;27689;48.390;10.856;2022-09-29T05:26:43;94675.22;;;7.39;100.00
42001;BME280;27689;48.390;10.856;2022-09-29T05:29:27;94673.25;;;7.41;100.00
42001;BME280;27689;48.390;10.856;2022-09-29T05:32:11;94680.41;;;7.48;100.00
42001;BME280;27689;48.390;10.856;2022-09-29T05:34:56;94670.31;;;7.53;100.00
42001;BME280;27689;48.390;10.856;2022-09-29T05:37:40;94667.03;;;7.59;100.00
42001;BME280;27689;48.390;10.856;2022-09-29T05:40:24;94670.31;;;7.61;100.00
42001;BME280;27689;48.390;10.856;2022-09-29T05:43:09;94683.00;;;7.64;100.00
42001;BME280;27689;48.390;10.856;2022-09-29T05:45:59;94678.63;;;7.64;100.00
42001;BME280;27689;48.390;10.856;2022-09-29T05:48:44;94665.59;;;7.64;100.00
42001;BME280;27689;48.390;10.856;2022-09-29T05:51:28;94666.06;;;7.68;100.00
42001;BME280;27689;48.390;10.856;2022-09-29T05:54:12;94670.63;;;7.74;100.00
42001;BME280;27689;48.390;10.856;2022-09-29T05:56:56;94663.28;;;7.77;100.00
42001;BME280;27689;48.390;10.856;2022-09-29T05:59:40;94653.19;;;7.83;100.00
42001;BME280;27689;48.390;10.856;2022-09-29T06:02:24;94649.25;;;7.87;100.00
42001;BME280;27689;48.390;10.856;2022-09-29T06:05:08;94655.59;;;7.92;100.00
42001;BME280;27689;48.390;10.856;2022-09-29T06:07:53;94658.53;;;7.97;100.00
42001;BME280;27689;48.390;10.856;2022-09-29T06:18:26;94668.44;;;8.10;100.00
42001;BME280;27689;48.390;10.856;2022-09-29T06:21:13;94671.53;;;8.13;100.00
42001;BME280;27689;48.390;10.856;2022-09-29T06:23:57;94663.19;;;8.18;100.00
42001;BME280;27689;48.390;10.856;2022-09-29T06:26:41;94667.09;;;8.22;100.00
42001;BME280;27689;48.390;10.856;2022-09-29T06:29:25;94672.63;;;8.27;100.00
42001;BME280;27689;48.390;10.856;2022-09-29T06:32:10;94664.63;;;8.29;100.00
42001;BME280;27689;48.390;10.856;2022-09-29T06:34:54;94664.97;;;8.34;100.00
42001;BME280;27689;48.390;10.856;2022-09-29T06:37:57;94668.72;;;8.39;100.00
42001;BME280;27689;48.390;10.856;2022-09-29T06:40:41;94661.69;;;8.40;100.00
42001;BME280;27689;48.390;10.856;2022-09-29T06:43:26;94670.00;;;8.43;100.00
42001;BME280;27689;48.390;10.856;2022-09-29T06:46:10;94673.88;;;8.47;100.00
42001;BME280;27689;48.390;10.856;2022-09-29T06:48:54;94667.19;;;8.53;100.00
42001;BME280;27689;48.390;10.856;2022-09-29T06:51:39;94657.38;;;8.55;100.00
42001;BME280;27689;48.390;10.856;2022-09-29T06:54:23;94665.53;;;8.60;100.00
42001;BME280;27689;48.390;10.856;2022-09-29T06:57:08;94675.59;;;8.63;100.00
42001;BME280;27689;48.390;10.856;2022-09-29T06:59:52;94665.53;;;8.60;100.00
42001;BME280;27689;48.390;10.856;2022-09-29T07:02:36;94672.84;;;8.65;100.00
42001;BME280;27689;48.390;10.856;2022-09-29T07:05:20;94675.75;;;8.70;100.00
42001;BME280;27689;48.390;10.856;2022-09-29T07:08:04;94666.94;;;8.71;100.00
42001;BME280;27689;48.390;10.856;2022-09-29T07:10:48;94668.75;;;8.70;100.00
42001;BME280;27689;48.390;10.856;2022-09-29T07:13:33;94681.75;;;8.78;100.00
42001;BME280;27689;48.390;10.856;2022-09-29T07:16:17;94674.56;;;8.80;100.00
42001;BME280;27689;48.390;10.856;2022-09-29T07:19:01;94675.19;;;8.82;100.00
42001;BME280;27689;48.390;10.856;2022-09-29T07:21:46;94691.00;;;8.89;100.00
42001;BME280;27689;48.390;10.856;2022-09-29T07:24:30;94682.97;;;8.91;100.00
42001;BME280;27689;48.390;10.856;2022-09-29T07:27:14;94679.03;;;8.95;100.00
42001;BME280;27689;48.390;10.856;2022-09-29T07:29:58;94679.81;;;9.03;100.00
42001;BME280;27689;48.390;10.856;2022-09-29T07:32:42;94679.94;;;9.10;100.00
42001;BME280;27689;48.390;10.856;2022-09-29T07:35:27;94685.28;;;9.16;100.00
42001;BME280;27689;48.390;10.856;2022-09-29T07:38:11;94680.72;;;9.18;100.00
42001;BME280;27689;48.390;10.856;2022-09-29T07:41:03;94677.22;;;9.26;100.00
42001;BME280;27689;48.390;10.856;2022-09-29T07:43:47;94675.06;;;9.30;100.00
42001;BME280;27689;48.390;10.856;2022-09-29T07:46:32;94685.47;;;9.38;100.00
42001;BME280;27689;48.390;10.856;2022-09-29T07:49:16;94683.16;;;9.43;100.00
42001;BME280;27689;48.390;10.856;2022-09-29T07:52:00;94688.53;;;9.41;100.00
42001;BME280;27689;48.390;10.856;2022-09-29T07:54:44;94688.88;;;9.38;100.00
42001;BME280;27689;48.390;10.856;2022-09-29T07:57:28;94703.25;;;9.42;100.00
42001;BME280;27689;48.390;10.856;2022-09-29T08:00:12;94690.34;;;9.41;100.00
42001;BME280;27689;48.390;10.856;2022-09-29T08:03:04;94702.34;;;9.50;100.00
42001;BME280;27689;48.390;10.856;2022-09-29T08:05:51;94699.69;;;9.58;100.00
42001;BME280;27689;48.390;10.856;2022-09-29T08:08:39;94698.38;;;9.62;100.00
42001;BME280;27689;48.390;10.856;2022-09-29T08:11:24;94698.63;;;9.67;100.00
42001;BME280;27689;48.390;10.856;2022-09-29T08:14:09;94702.53;;;9.71;100.00
42001;BME280;27689;48.390;10.856;2022-09-29T08:16:53;94696.47;;;9.71;100.00
42001;BME280;27689;48.390;10.856;2022-09-29T08:19:37;94701.19;;;9.75;100.00
42001;BME280;27689;48.390;10.856;2022-09-29T08:22:21;94695.41;;;9.80;100.00
42001;BME280;27689;48.390;10.856;2022-09-29T08:25:05;94713.19;;;9.84;100.00
42001;BME280;27689;48.390;10.856;2022-09-29T08:27:50;94700.63;;;9.80;100.00
42001;BME280;27689;48.390;10.856;2022-09-29T08:30:34;94709.41;;;9.87;100.00
42001;BME280;27689;48.390;10.856;2022-09-29T08:33:18;94715.13;;;9.90;100.00
42001;BME280;27689;48.390;10.856;2022-09-29T08:36:03;94711.78;;;9.97;100.00
42001;BME280;27689;48.390;10.856;2022-09-29T08:38:52;94719.91;;;10.02;100.00
42001;BME280;27689;48.390;10.856;2022-09-29T08:41:53;94722.81;;;10.07;100.00
42001;BME280;27689;48.390;10.856;2022-09-29T08:44:49;94727.25;;;10.06;100.00
42001;BME280;27689;48.390;10.856;2022-09-29T08:47:42;94722.00;;;10.06;100.00
42001;BME280;27689;48.390;10.856;2022-09-29T08:50:41;94732.34;;;10.00;100.00
42001;BME280;27689;48.390;10.856;2022-09-29T08:53:29;94726.97;;;10.16;100.00
42001;BME280;27689;48.390;10.856;2022-09-29T08:56:16;94735.34;;;10.34;100.00
42001;BME280;27689;48.390;10.856;2022-09-29T08:59:01;94733.25;;;10.44;100.00
42001;BME280;27689;48.390;10.856;2022-09-29T09:02:03;94728.78;;;10.53;100.00
42001;BME280;27689;48.390;10.856;2022-09-29T09:17:15;94737.16;;;10.78;100.00
42001;BME280;27689;48.390;10.856;2022-09-29T09:23:21;94743.03;;;10.94;100.00
42001;BME280;27689;48.390;10.856;2022-09-29T09:26:07;94748.50;;;11.00;100.00
42001;BME280;27689;48.390;10.856;2022-09-29T09:29:03;94741.56;;;11.07;100.00
42001;BME280;27689;48.390;10.856;2022-09-29T09:32:14;94751.31;;;11.13;100.00
42001;BME280;27689;48.390;10.856;2022-09-29T09:37:51;94734.16;;;10.95;99.22
42001;BME280;27689;48.390;10.856;2022-09-29T09:40:40;94746.88;;;10.99;99.36
42001;BME280;27689;48.390;10.856;2022-09-29T09:43:42;94741.91;;;11.04;98.30
42001;BME280;27689;48.390;10.856;2022-09-29T09:46:36;94744.69;;;11.17;100.00
42001;BME280;27689;48.390;10.856;2022-09-29T09:49:26;94737.44;;;11.19;98.80
42001;BME280;27689;48.390;10.856;2022-09-29T09:52:28;94742.59;;;11.27;98.81
42001;BME280;27689;48.390;10.856;2022-09-29T09:55:18;94746.28;;;11.32;98.93
42001;BME280;27689;48.390;10.856;2022-09-29T10:00:54;94742.13;;;11.38;99.32
42001;BME280;27689;48.390;10.856;2022-09-29T10:03:40;94754.06;;;11.41;99.71
42001;BME280;27689;48.390;10.856;2022-09-29T10:06:24;94740.84;;;11.34;98.85
42001;BME280;27689;48.390;10.856;2022-09-29T10:09:12;94749.22;;;11.44;100.00
42001;BME280;27689;48.390;10.856;2022-09-29T10:11:58;94745.44;;;11.47;100.00
42001;BME280;27689;48.390;10.856;2022-09-29T10:14:56;94745.50;;;11.53;99.82
42001;BME280;27689;48.390;10.856;2022-09-29T10:17:45;94738.13;;;11.42;97.95
42001;BME280;27689;48.390;10.856;2022-09-29T10:20:33;94747.22;;;11.46;98.84
42001;BME280;27689;48.390;10.856;2022-09-29T10:23:32;94745.69;;;11.52;99.12
42001;BME280;27689;48.390;10.856;2022-09-29T10:26:18;94744.06;;;11.51;98.90
42001;BME280;27689;48.390;10.856;2022-09-29T10:29:28;94752.38;;;11.54;98.97
42001;BME280;27689;48.390;10.856;2022-09-29T10:35:23;94750.03;;;11.23;94.44
42001;BME280;27689;48.390;10.856;2022-09-29T10:38:25;94745.31;;;11.19;92.26
42001;BME280;27689;48.390;10.856;2022-09-29T10:41:09;94749.84;;;11.25;95.17
42001;BME280;27689;48.390;10.856;2022-09-29T10:43:53;94760.84;;;11.35;97.53
42001;BME280;27689;48.390;10.856;2022-09-29T10:46:48;94759.31;;;11.26;95.28
42001;BME280;27689;48.390;10.856;2022-09-29T10:49:32;94765.78;;;11.09;94.05
42001;BME280;27689;48.390;10.856;2022-09-29T10:52:25;94768.75;;;11.06;92.80
42001;BME280;27689;48.390;10.856;2022-09-29T10:55:22;94767.59;;;10.79;94.63
42001;BME280;27689;48.390;10.856;2022-09-29T10:58:20;94768.94;;;10.75;96.98
42001;BME280;27689;48.390;10.856;2022-09-29T11:01:10;94767.50;;;10.72;98.77
42001;BME280;27689;48.390;10.856;2022-09-29T11:03:56;94774.53;;;10.86;99.30
42001;BME280;27689;48.390;10.856;2022-09-29T11:06:46;94780.06;;;10.77;97.17
42001;BME280;27689;48.390;10.856;2022-09-29T11:09:34;94777.09;;;10.80;97.22
42001;BME280;27689;48.390;10.856;2022-09-29T11:12:35;94773.19;;;10.76;96.26
42001;BME280;27689;48.390;10.856;2022-09-29T11:15:24;94776.72;;;10.83;97.85
42001;BME280;27689;48.390;10.856;2022-09-29T11:18:20;94788.44;;;10.87;98.76
42001;BME280;27689;48.390;10.856;2022-09-29T11:28:20;94796.13;;;10.88;97.92
42001;BME280;27689;48.390;10.856;2022-09-29T11:31:22;94795.78;;;10.91;99.10
42001;BME280;27689;48.390;10.856;2022-09-29T11:40:44;94806.06;;;10.78;100.00
42001;BME280;27689;48.390;10.856;2022-09-29T11:43:45;94791.84;;;10.43;98.89
42001;BME280;27689;48.390;10.856;2022-09-29T11:46:46;94801.78;;;10.33;100.00
42001;BME280;27689;48.390;10.856;2022-09-29T11:52:43;94787.19;;;10.53;100.00
42001;BME280;27689;48.390;10.856;2022-09-29T12:08:25;94791.97;;;10.50;97.65
42001;BME280;27689;48.390;10.856;2022-09-29T12:11:22;94794.41;;;10.51;97.95
42001;BME280;27689;48.390;10.856;2022-09-29T12:14:25;94780.66;;;10.35;94.05
42001;BME280;27689;48.390;10.856;2022-09-29T12:17:13;94780.03;;;10.33;96.29
42001;BME280;27689;48.390;10.856;2022-09-29T12:20:04;94781.66;;;10.34;98.00
42001;BME280;27689;48.390;10.856;2022-09-29T12:22:51;94776.41;;;10.34;97.08
42001;BME280;27689;48.390;10.856;2022-09-29T12:25:41;94779.69;;;10.50;99.28
42001;BME280;27689;48.390;10.856;2022-09-29T12:29:03;94783.09;;;10.36;94.64
42001;BME280;27689;48.390;10.856;2022-09-29T12:31:52;94779.03;;;10.34;97.11
42001;BME280;27689;48.390;10.856;2022-09-29T12:34:57;94782.66;;;10.47;97.58
42001;BME280;27689;48.390;10.856;2022-09-29T12:37:56;94781.84;;;10.47;96.96
42001;BME280;27689;48.390;10.856;2022-09-29T12:43:45;94786.38;;;10.53;99.03
42001;BME280;27689;48.390;10.856;2022-09-29T12:49:31;94790.59;;;10.69;98.30
42001;BME280;27689;48.390;10.856;2022-09-29T12:52:22;94792.53;;;10.75;97.95
42001;BME280;27689;48.390;10.856;2022-09-29T12:55:17;94787.72;;;10.64;97.49
42001;BME280;27689;48.390;10.856;2022-09-29T12:58:07;94794.69;;;10.71;98.08
42001;BME280;27689;48.390;10.856;2022-09-29T13:00:59;94790.25;;;10.72;97.17
42001;BME280;27689;48.390;10.856;2022-09-29T13:16:25;94786.00;;;10.56;97.78
42001;BME280;27689;48.390;10.856;2022-09-29T13:22:16;94787.38;;;10.67;99.69
42001;BME280;27689;48.390;10.856;2022-09-29T13:28:43;94787.63;;;10.57;98.76
42001;BME280;27689;48.390;10.856;2022-09-29T13:31:30;94778.88;;;10.65;99.76
42001;BME280;27689;48.390;10.856;2022-09-29T13:34:29;94788.81;;;10.69;98.23
42001;BME280;27689;48.390;10.856;2022-09-29T13:37:20;94795.47;;;10.57;98.21
42001;BME280;27689;48.390;10.856;2022-09-29T13:40:07;94798.03;;;10.65;100.00
42001;BME280;27689;48.390;10.856;2022-09-29T13:43:02;94807.59;;;10.73;100.00
42001;BME280;27689;48.390;10.856;2022-09-29T13:45:48;94810.03;;;10.74;99.82
42001;BME280;27689;48.390;10.856;2022-09-29T13:48:34;94804.44;;;10.77;100.00
42001;BME280;27689;48.390;10.856;2022-09-29T13:51:26;94801.09;;;10.69;98.52
42001;BME280;27689;48.390;10.856;2022-09-29T13:54:35;94807.69;;;10.65;97.40
42001;BME280;27689;48.390;10.856;2022-09-29T13:57:21;94815.81;;;10.70;99.01
42001;BME280;27689;48.390;10.856;2022-09-29T14:00:17;94810.66;;;10.62;98.63
42001;BME280;27689;48.390;10.856;2022-09-29T14:03:04;94818.97;;;10.65;99.17
42001;BME280;27689;48.390;10.856;2022-09-29T14:05:54;94810.94;;;10.67;99.97
42001;BME280;27689;48.390;10.856;2022-09-29T14:11:35;94820.84;;;10.56;100.00
42001;BME280;27689;48.390;10.856;2022-09-29T14:14:36;94816.44;;;10.57;100.00
42001;BME280;27689;48.390;10.856;2022-09-29T14:17:34;94820.69;;;10.58;100.00
42001;BME280;27689;48.390;10.856;2022-09-29T14:20:27;94829.81;;;10.62;100.00
42001;BME280;27689;48.390;10.856;2022-09-29T14:26:47;94834.97;;;10.85;100.00
42001;BME280;27689;48.390;10.856;2022-09-29T14:29:33;94840.50;;;10.90;100.00
42001;BME280;27689;48.390;10.856;2022-09-29T14:32:45;94832.53;;;10.83;100.00
42001;BME280;27689;48.390;10.856;2022-09-29T14:35:36;94837.06;;;10.89;100.00
42001;BME280;27689;48.390;10.856;2022-09-29T14:38:23;94849.44;;;10.95;100.00
42001;BME280;27689;48.390;10.856;2022-09-29T14:43:57;94849.44;;;10.81;100.00
42001;BME280;27689;48.390;10.856;2022-09-29T15:02:40;94859.75;;;10.97;100.00
42001;BME280;27689;48.390;10.856;2022-09-29T15:05:29;94860.38;;;10.99;100.00
42001;BME280;27689;48.390;10.856;2022-09-29T15:08:25;94858.72;;;10.83;100.00
42001;BME280;27689;48.390;10.856;2022-09-29T15:11:36;94856.50;;;10.80;100.00
42001;BME280;27689;48.390;10.856;2022-09-29T15:14:28;94870.00;;;10.69;100.00
42001;BME280;27689;48.390;10.856;2022-09-29T15:20:26;94876.50;;;10.73;100.00
42001;BME280;27689;48.390;10.856;2022-09-29T15:23:46;94874.53;;;10.75;100.00
42001;BME280;27689;48.390;10.856;2022-09-29T15:26:36;94880.72;;;10.59;100.00
42001;BME280;27689;48.390;10.856;2022-09-29T15:29:23;94876.78;;;10.64;100.00
42001;BME280;27689;48.390;10.856;2022-09-29T15:32:20;94869.63;;;10.57;100.00
42001;BME280;27689;48.390;10.856;2022-09-29T15:35:07;94878.19;;;10.51;100.00
42001;BME280;27689;48.390;10.856;2022-09-29T15:37:58;94882.88;;;10.56;100.00
42001;BME280;27689;48.390;10.856;2022-09-29T15:41:04;94881.84;;;10.65;100.00
42001;BME280;27689;48.390;10.856;2022-09-29T15:43:55;94881.50;;;10.68;100.00
42001;BME280;27689;48.390;10.856;2022-09-29T15:50:23;94884.91;;;10.69;100.00
42001;BME280;27689;48.390;10.856;2022-09-29T15:53:09;94887.91;;;10.66;100.00
42001;BME280;27689;48.390;10.856;2022-09-29T15:55:54;94888.72;;;10.66;100.00
42001;BME280;27689;48.390;10.856;2022-09-29T15:58:43;94894.22;;;10.71;100.00
42001;BME280;27689;48.390;10.856;2022-09-29T16:01:27;94889.53;;;10.67;100.00
42001;BME280;27689;48.390;10.856;2022-09-29T16:04:11;94901.44;;;10.69;100.00
42001;BME280;27689;48.390;10.856;2022-09-29T16:06:56;94910.56;;;10.73;100.00
42001;BME280;27689;48.390;10.856;2022-09-29T16:09:40;94907.31;;;10.71;100.00
42001;BME280;27689;48.390;10.856;2022-09-29T16:12:24;94909.91;;;10.71;100.00
42001;BME280;27689;48.390;10.856;2022-09-29T16:15:38;94915.53;;;10.68;100.00
42001;BME280;27689;48.390;10.856;2022-09-29T16:18:32;94915.97;;;10.72;100.00
42001;BME280;27689;48.390;10.856;2022-09-29T16:21:22;94920.41;;;10.71;100.00
42001;BME280;27689;48.390;10.856;2022-09-29T16:24:16;94922.03;;;10.72;100.00
42001;BME280;27689;48.390;10.856;2022-09-29T16:27:02;94919.75;;;10.69;100.00
42001;BME280;27689;48.390;10.856;2022-09-29T16:33:15;94931.88;;;10.70;100.00
42001;BME280;27689;48.390;10.856;2022-09-29T16:36:30;94929.78;;;10.66;100.00
42001;BME280;27689;48.390;10.856;2022-09-29T16:39:23;94924.25;;;10.60;100.00
42001;BME280;27689;48.390;10.856;2022-09-29T16:42:23;94939.47;;;10.65;100.00
42001;BME280;27689;48.390;10.856;2022-09-29T16:45:13;94943.28;;;10.54;100.00
42001;BME280;27689;48.390;10.856;2022-09-29T16:47:59;94942.53;;;10.46;100.00
42001;BME280;27689;48.390;10.856;2022-09-29T16:50:47;94945.47;;;10.51;100.00
42001;BME280;27689;48.390;10.856;2022-09-29T16:53:33;94949.88;;;10.50;100.00
42001;BME280;27689;48.390;10.856;2022-09-29T16:56:25;94955.56;;;10.54;100.00
42001;BME280;27689;48.390;10.856;2022-09-29T16:59:16;94950.53;;;10.52;100.00
42001;BME280;27689;48.390;10.856;2022-09-29T17:02:00;94963.25;;;10.55;100.00
42001;BME280;27689;48.390;10.856;2022-09-29T17:04:45;94968.47;;;10.55;100.00
42001;BME280;27689;48.390;10.856;2022-09-29T17:07:29;94972.63;;;10.50;100.00
42001;BME280;27689;48.390;10.856;2022-09-29T17:10:16;94968.25;;;10.42;100.00
42001;BME280;27689;48.390;10.856;2022-09-29T17:13:03;94968.25;;;10.42;100.00